createdAt,value
2022-12-09T00:02:08.360Z,12.98
2022-12-09T00:04:37.040Z,12.97
2022-12-09T00:07:05.721Z,12.96
2022-12-09T00:09:34.021Z,12.96
2022-12-09T00:12:02.538Z,12.96
2022-12-09T00:14:31.045Z,12.94
2022-12-09T00:16:59.653Z,12.93
2022-12-09T00:19:28.037Z,12.94
2022-12-09T00:21:56.329Z,12.96
2022-12-09T00:24:24.640Z,12.99
2022-12-09T00:26:53.040Z,13.00
2022-12-09T00:29:21.501Z,12.95
2022-12-09T00:31:49.914Z,12.92
2022-12-09T00:34:18.908Z,12.89
2022-12-09T00:36:47.690Z,12.85
2022-12-09T00:39:16.305Z,12.83
2022-12-09T00:41:44.868Z,12.84
2022-12-09T00:44:14.320Z,12.81
2022-12-09T00:46:42.739Z,12.78
2022-12-09T00:49:12.701Z,12.74
2022-12-09T00:51:41.333Z,12.72
2022-12-09T00:54:09.827Z,12.69
2022-12-09T00:56:38.696Z,12.70
2022-12-09T00:59:07.108Z,12.71
2022-12-09T01:01:35.817Z,12.69
2022-12-09T01:04:09.324Z,12.68
2022-12-09T01:06:38.071Z,12.70
2022-12-09T01:09:06.939Z,12.67
2022-12-09T01:11:37.768Z,12.66
2022-12-09T01:14:06.231Z,12.67
2022-12-09T01:16:35.832Z,12.67
2022-12-09T01:19:08.611Z,12.67
2022-12-09T01:21:37.557Z,12.65
2022-12-09T01:24:11.605Z,12.65
2022-12-09T01:26:40.446Z,12.65
2022-12-09T01:29:09.125Z,12.65
2022-12-09T01:31:37.636Z,12.61
2022-12-09T01:34:06.531Z,12.58
2022-12-09T01:36:35.069Z,12.57
2022-12-09T01:39:03.478Z,12.55
2022-12-09T01:41:31.873Z,12.52
2022-12-09T01:44:23.783Z,12.50
2022-12-09T01:46:57.494Z,12.49
2022-12-09T01:49:48.872Z,12.48
2022-12-09T01:52:25.052Z,12.45
2022-12-09T01:54:54.189Z,12.41
2022-12-09T01:57:22.796Z,12.39
2022-12-09T01:59:51.306Z,12.38
2022-12-09T02:02:21.452Z,12.37
2022-12-09T02:04:51.711Z,12.34
2022-12-09T02:07:20.519Z,12.34
2022-12-09T02:09:56.627Z,12.34
2022-12-09T02:12:53.908Z,12.35
2022-12-09T02:15:46.167Z,12.32
2022-12-09T02:18:37.939Z,12.31
2022-12-09T02:21:13.748Z,12.30
2022-12-09T02:23:54.923Z,12.28
2022-12-09T02:26:38.042Z,12.24
2022-12-09T02:29:31.315Z,12.20
2022-12-09T02:32:14.559Z,12.16
2022-12-09T02:34:49.294Z,12.12
2022-12-09T02:37:21.353Z,12.08
2022-12-09T02:40:09.649Z,12.08
2022-12-09T02:42:40.655Z,12.07
2022-12-09T02:45:11.848Z,12.04
2022-12-09T02:47:44.227Z,12.04
2022-12-09T02:50:16.261Z,12.00
2022-12-09T02:52:46.238Z,11.97
2022-12-09T02:55:18.044Z,11.97
2022-12-09T02:57:46.727Z,11.98
2022-12-09T03:00:16.485Z,11.98
2022-12-09T03:02:52.402Z,11.95
2022-12-09T03:05:35.437Z,11.95
2022-12-09T03:08:25.551Z,11.95
2022-12-09T03:11:05.771Z,11.99
2022-12-09T03:14:00.907Z,12.00
2022-12-09T03:16:45.614Z,12.03
2022-12-09T03:19:32.007Z,12.02
2022-12-09T03:22:06.684Z,12.03
2022-12-09T03:24:40.693Z,12.01
2022-12-09T03:27:13.739Z,12.00
2022-12-09T03:29:46.799Z,11.99
2022-12-09T03:32:19.606Z,11.99
2022-12-09T03:34:52.055Z,11.98
2022-12-09T03:37:22.545Z,12.02
2022-12-09T03:39:52.448Z,12.01
2022-12-09T03:42:27.843Z,12.00
2022-12-09T03:45:08.925Z,12.02
2022-12-09T03:47:38.348Z,12.02
2022-12-09T03:50:09.107Z,12.00
2022-12-09T03:52:44.299Z,12.02
2022-12-09T03:55:31.615Z,12.03
2022-12-09T03:58:04.349Z,12.05
2022-12-09T04:00:32.919Z,12.05
2022-12-09T04:03:01.787Z,12.07
2022-12-09T04:05:30.200Z,12.08
2022-12-09T04:07:58.897Z,12.09
2022-12-09T04:10:27.661Z,12.10
2022-12-09T04:12:56.436Z,12.09
2022-12-09T04:15:25.202Z,12.10
2022-12-09T04:17:54.063Z,12.13
2022-12-09T04:20:22.611Z,12.14
2022-12-09T04:22:51.102Z,12.11
2022-12-09T04:25:19.507Z,12.13
2022-12-09T04:27:47.995Z,12.15
2022-12-09T04:30:16.600Z,12.11
2022-12-09T04:32:45.326Z,12.05
2022-12-09T04:35:13.838Z,12.07
2022-12-09T04:37:42.134Z,12.08
2022-12-09T04:40:11.307Z,12.10
2022-12-09T04:42:40.437Z,12.11
2022-12-09T04:45:09.933Z,12.08
2022-12-09T04:47:38.330Z,12.07
2022-12-09T04:50:07.783Z,12.09
2022-12-09T04:52:36.769Z,12.10
2022-12-09T04:55:05.609Z,12.09
2022-12-09T04:57:34.157Z,12.13
2022-12-09T05:00:03.067Z,12.15
2022-12-09T05:02:31.582Z,12.13
2022-12-09T05:05:02.876Z,12.14
2022-12-09T05:07:32.292Z,12.17
2022-12-09T05:10:01.370Z,12.18
2022-12-09T05:12:29.772Z,12.18
2022-12-09T05:14:59.666Z,12.19
2022-12-09T05:17:28.403Z,12.20
2022-12-09T05:19:56.973Z,12.24
2022-12-09T05:22:25.548Z,12.26
2022-12-09T05:24:54.196Z,12.26
2022-12-09T05:27:23.974Z,12.24
2022-12-09T05:29:52.551Z,12.21
2022-12-09T05:32:20.942Z,12.17
2022-12-09T05:34:50.145Z,12.12
2022-12-09T05:37:18.835Z,12.11
2022-12-09T05:39:47.127Z,12.08
2022-12-09T05:42:15.452Z,12.05
2022-12-09T05:44:43.838Z,12.07
2022-12-09T05:47:12.174Z,12.09
2022-12-09T05:49:40.747Z,12.09
2022-12-09T05:52:11.049Z,12.09
2022-12-09T05:54:40.028Z,12.09
2022-12-09T05:57:09.309Z,12.09
2022-12-09T05:59:38.187Z,12.10
2022-12-09T06:02:10.022Z,12.08
2022-12-09T06:04:39.277Z,12.07
2022-12-09T06:07:07.924Z,12.05
2022-12-09T06:09:36.459Z,12.03
2022-12-09T06:12:06.039Z,12.01
2022-12-09T06:14:34.829Z,12.02
2022-12-09T06:17:04.056Z,12.04
2022-12-09T06:19:33.369Z,12.03
2022-12-09T06:22:02.052Z,12.07
2022-12-09T06:24:30.832Z,12.07
2022-12-09T06:26:59.605Z,12.08
2022-12-09T06:29:28.223Z,12.10
2022-12-09T06:31:56.898Z,12.10
2022-12-09T06:34:25.735Z,12.11
2022-12-09T06:36:54.863Z,12.14
2022-12-09T06:39:23.443Z,12.12
2022-12-09T06:41:52.141Z,12.11
2022-12-09T06:44:23.753Z,12.08
2022-12-09T06:46:53.034Z,12.08
2022-12-09T06:49:21.671Z,12.07
2022-12-09T06:51:50.606Z,12.08
2022-12-09T06:54:19.344Z,12.04
2022-12-09T06:56:48.374Z,12.02
2022-12-09T06:59:17.497Z,12.04
2022-12-09T07:01:46.925Z,12.04
2022-12-09T07:04:16.695Z,12.07
2022-12-09T07:06:47.089Z,12.09
2022-12-09T07:09:21.454Z,12.08
2022-12-09T07:11:50.339Z,12.05
2022-12-09T07:14:20.122Z,12.04
2022-12-09T07:16:48.982Z,12.03
2022-12-09T07:19:23.401Z,12.02
2022-12-09T07:21:53.210Z,12.02
2022-12-09T07:24:22.011Z,12.03
2022-12-09T07:26:53.881Z,12.02
2022-12-09T07:29:22.387Z,12.02
2022-12-09T07:31:51.318Z,12.04
2022-12-09T07:34:20.250Z,12.04
2022-12-09T07:36:48.823Z,12.04
2022-12-09T07:39:19.887Z,12.04
2022-12-09T07:42:00.197Z,12.04
2022-12-09T07:44:29.636Z,12.03
2022-12-09T07:46:59.387Z,12.00
2022-12-09T07:49:28.241Z,11.99
2022-12-09T07:51:56.719Z,12.01
2022-12-09T07:54:25.275Z,12.00
2022-12-09T07:56:53.717Z,12.00
2022-12-09T07:59:22.370Z,11.97
2022-12-09T08:01:51.032Z,11.97
2022-12-09T08:04:19.903Z,11.93
2022-12-09T08:06:48.522Z,11.90
2022-12-09T08:09:17.609Z,11.91
2022-12-09T08:11:46.312Z,11.90
2022-12-09T08:14:15.113Z,11.86
2022-12-09T08:16:44.712Z,11.85
2022-12-09T08:19:14.559Z,11.86
2022-12-09T08:21:45.563Z,11.87
2022-12-09T08:24:17.148Z,11.87
2022-12-09T08:26:45.918Z,11.88
2022-12-09T08:29:15.266Z,11.89
2022-12-09T08:31:45.206Z,11.90
2022-12-09T08:34:14.585Z,11.93
2022-12-09T08:36:44.303Z,11.94
2022-12-09T08:39:14.885Z,11.92
2022-12-09T08:41:44.870Z,11.89
2022-12-09T08:44:17.960Z,11.87
2022-12-09T08:46:49.275Z,11.84
2022-12-09T08:49:21.108Z,11.78
2022-12-09T08:51:52.015Z,11.77
2022-12-09T08:54:20.866Z,11.74
2022-12-09T08:56:56.408Z,11.72
2022-12-09T08:59:26.166Z,11.69
2022-12-09T09:01:55.503Z,11.66
2022-12-09T09:04:24.481Z,11.64
2022-12-09T09:06:53.937Z,11.63
2022-12-09T09:09:23.783Z,11.61
2022-12-09T09:11:52.775Z,11.54
2022-12-09T09:14:21.368Z,11.50
2022-12-09T09:16:50.723Z,11.45
2022-12-09T09:19:22.645Z,11.41
2022-12-09T09:21:51.684Z,11.39
2022-12-09T09:24:22.931Z,11.35
2022-12-09T09:26:54.039Z,11.33
2022-12-09T09:29:24.741Z,11.32
2022-12-09T09:31:56.568Z,11.30
2022-12-09T09:34:27.237Z,11.29
2022-12-09T09:36:57.855Z,11.29
2022-12-09T09:39:26.722Z,11.33
2022-12-09T09:42:08.725Z,11.32
2022-12-09T09:44:48.751Z,11.27
2022-12-09T09:47:38.803Z,11.23
2022-12-09T09:50:26.603Z,11.17
2022-12-09T09:52:57.577Z,11.15
2022-12-09T09:55:33.907Z,11.16
2022-12-09T09:58:23.838Z,11.13
2022-12-09T10:00:57.504Z,11.10
2022-12-09T10:03:52.405Z,11.10
2022-12-09T10:06:39.550Z,11.12
2022-12-09T10:09:42.451Z,11.12
2022-12-09T10:12:16.742Z,11.13
2022-12-09T10:15:11.073Z,11.13
2022-12-09T10:17:45.901Z,11.15
2022-12-09T10:20:28.610Z,11.15
2022-12-09T10:23:02.034Z,11.17
2022-12-09T10:25:34.632Z,11.17
2022-12-09T10:28:19.452Z,11.17
2022-12-09T10:30:49.439Z,11.18
2022-12-09T10:33:22.463Z,11.18
2022-12-09T10:35:51.264Z,11.19
2022-12-09T10:38:22.890Z,11.16
2022-12-09T10:41:03.703Z,11.14
2022-12-09T10:43:43.283Z,11.13
2022-12-09T10:46:19.205Z,11.13
2022-12-09T10:48:49.295Z,11.12
2022-12-09T10:51:22.906Z,11.12
2022-12-09T10:54:06.954Z,11.08
2022-12-09T10:57:00.125Z,11.06
2022-12-09T10:59:31.427Z,11.03
2022-12-09T11:02:22.203Z,11.01
2022-12-09T11:04:51.873Z,11.00
2022-12-09T11:07:24.612Z,11.01
2022-12-09T11:10:08.887Z,11.01
2022-12-09T11:12:41.303Z,11.00
2022-12-09T11:15:13.607Z,11.00
2022-12-09T11:17:56.875Z,11.00
2022-12-09T11:20:31.641Z,10.98
2022-12-09T11:23:07.631Z,10.98
2022-12-09T11:25:38.533Z,10.96
2022-12-09T11:28:36.771Z,10.96
2022-12-09T11:31:29.570Z,10.97
2022-12-09T11:34:03.587Z,10.99
2022-12-09T11:36:36.926Z,11.01
2022-12-09T11:39:25.402Z,11.02
2022-12-09T11:42:19.422Z,11.01
2022-12-09T11:45:45.239Z,10.98
2022-12-09T11:48:36.207Z,10.95
2022-12-09T11:51:07.958Z,10.91
2022-12-09T11:53:41.978Z,10.88
2022-12-09T11:56:24.087Z,10.88
2022-12-09T11:58:57.864Z,10.87
2022-12-09T12:01:31.289Z,10.87
2022-12-09T12:04:09.200Z,10.88
2022-12-09T12:06:51.956Z,10.87
2022-12-09T12:09:31.159Z,10.86
2022-12-09T12:12:23.768Z,10.88
2022-12-09T12:14:52.118Z,10.87
2022-12-09T12:17:44.465Z,10.88
2022-12-09T12:20:16.445Z,10.87
2022-12-09T12:23:10.679Z,10.86
2022-12-09T12:26:05.078Z,10.85
2022-12-09T12:28:57.336Z,10.83
2022-12-09T12:31:48.484Z,10.84
2022-12-09T12:34:43.966Z,10.83
2022-12-09T12:37:40.894Z,10.80
2022-12-09T12:40:34.526Z,10.75
2022-12-09T12:43:42.439Z,10.71
2022-12-09T12:46:32.198Z,10.68
2022-12-09T12:49:22.008Z,10.67
2022-12-09T12:52:54.896Z,10.65
2022-12-09T12:55:37.023Z,10.63
2022-12-09T12:58:18.198Z,10.59
2022-12-09T13:01:14.236Z,10.54
2022-12-09T13:03:55.676Z,10.51
2022-12-09T13:07:03.312Z,10.49
2022-12-09T13:09:43.318Z,10.49
2022-12-09T13:12:45.182Z,10.43
2022-12-09T13:15:16.564Z,10.37
2022-12-09T13:17:48.439Z,10.35
2022-12-09T13:20:32.439Z,10.35
2022-12-09T13:23:16.409Z,10.35
2022-12-09T13:26:21.864Z,10.33
2022-12-09T13:29:14.018Z,10.36
2022-12-09T13:31:59.428Z,10.32
2022-12-09T13:34:55.595Z,10.26
2022-12-09T13:37:56.868Z,10.19
2022-12-09T13:40:38.679Z,10.17
2022-12-09T13:43:15.798Z,10.12
2022-12-09T13:45:44.229Z,10.09
2022-12-09T13:48:17.092Z,10.03
2022-12-09T13:50:58.358Z,9.98
2022-12-09T13:53:45.705Z,9.95
2022-12-09T13:56:17.595Z,9.90
2022-12-09T13:59:27.134Z,9.89
2022-12-09T14:02:15.964Z,9.86
2022-12-09T14:04:59.458Z,9.85
2022-12-09T14:07:37.053Z,9.75
2022-12-09T14:10:06.832Z,9.66
2022-12-09T14:12:38.386Z,9.57
2022-12-09T14:15:29.280Z,9.54
2022-12-09T14:18:02.841Z,9.49
2022-12-09T14:20:36.279Z,9.43
2022-12-09T14:23:13.558Z,9.39
2022-12-09T14:26:01.189Z,9.35
2022-12-09T14:28:35.302Z,9.31
2022-12-09T14:31:08.666Z,9.27
2022-12-09T14:33:45.529Z,9.19
2022-12-09T14:36:16.601Z,9.14
2022-12-09T14:39:25.883Z,9.08
2022-12-09T14:42:09.404Z,9.02
2022-12-09T14:44:43.594Z,8.99
2022-12-09T14:47:27.537Z,8.96
2022-12-09T14:49:57.734Z,8.95
2022-12-09T14:52:33.889Z,8.93
2022-12-09T14:55:07.945Z,8.96
2022-12-09T14:57:45.089Z,8.96
2022-12-09T15:00:34.851Z,8.96
2022-12-09T15:03:39.455Z,8.92
2022-12-09T15:06:14.298Z,8.84
2022-12-09T15:08:43.722Z,8.79
2022-12-09T15:11:20.914Z,8.78
2022-12-09T15:13:52.582Z,8.77
2022-12-09T15:16:24.982Z,8.76
2022-12-09T15:18:55.717Z,8.77
2022-12-09T15:21:33.891Z,8.74
2022-12-09T15:24:02.628Z,8.70
2022-12-09T15:26:33.879Z,8.65
2022-12-09T15:29:05.995Z,8.60
2022-12-09T15:31:36.119Z,8.58
2022-12-09T15:34:26.175Z,8.54
2022-12-09T15:37:05.281Z,8.56
2022-12-09T15:40:09.250Z,8.55
2022-12-09T15:42:41.450Z,8.54
2022-12-09T15:45:16.722Z,8.52
2022-12-09T15:47:51.503Z,8.50
2022-12-09T15:50:37.065Z,8.51
2022-12-09T15:53:29.811Z,8.53
2022-12-09T15:56:05.665Z,8.53
2022-12-09T15:58:41.255Z,8.54
2022-12-09T16:01:10.366Z,8.54
2022-12-09T16:03:39.664Z,8.52
2022-12-09T16:06:10.259Z,8.51
2022-12-09T16:08:41.520Z,8.50
2022-12-09T16:11:10.904Z,8.51
2022-12-09T16:13:59.483Z,8.52
2022-12-09T16:16:43.235Z,8.52
2022-12-09T16:19:36.936Z,8.53
2022-12-09T16:22:18.200Z,8.56
2022-12-09T16:25:13.654Z,8.58
2022-12-09T16:27:41.196Z,8.62
2022-12-09T16:30:18.921Z,8.64
2022-12-09T16:32:51.663Z,8.67
2022-12-09T16:35:25.229Z,8.71
2022-12-09T16:37:59.805Z,8.78
2022-12-09T16:40:29.406Z,8.81
2022-12-09T16:43:17.879Z,8.85
2022-12-09T16:45:50.267Z,8.87
2022-12-09T16:48:20.273Z,8.93
2022-12-09T16:51:13.776Z,8.97
2022-12-09T16:53:53.110Z,9.00
2022-12-09T16:56:24.125Z,9.07
2022-12-09T16:58:53.244Z,9.11
2022-12-09T17:01:24.496Z,9.14
2022-12-09T17:04:18.950Z,9.17
2022-12-09T17:06:47.487Z,9.24
2022-12-09T17:09:16.069Z,9.32
2022-12-09T17:11:48.803Z,9.35
2022-12-09T17:14:18.854Z,9.40
2022-12-09T17:16:47.378Z,9.46
2022-12-09T17:19:16.054Z,9.49
2022-12-09T17:21:44.441Z,9.56
2022-12-09T17:24:13.031Z,9.61
2022-12-09T17:26:41.701Z,9.65
2022-12-09T17:29:10.366Z,9.70
2022-12-09T17:31:38.713Z,9.74
2022-12-09T17:34:07.169Z,9.84
2022-12-09T17:36:35.491Z,9.90
2022-12-09T17:39:06.404Z,9.93
2022-12-09T17:41:34.950Z,9.92
2022-12-09T17:44:03.329Z,9.96
2022-12-09T17:46:31.844Z,10.03
2022-12-09T17:49:03.480Z,10.11
2022-12-09T17:51:36.001Z,10.13
2022-12-09T17:54:05.297Z,10.19
2022-12-09T17:56:33.699Z,10.21
2022-12-09T17:59:06.080Z,10.26
2022-12-09T18:01:37.089Z,10.27
2022-12-09T18:04:10.547Z,10.28
2022-12-09T18:06:44.190Z,10.32
2022-12-09T18:09:16.399Z,10.36
2022-12-09T18:11:45.400Z,10.40
2022-12-09T18:14:13.884Z,10.43
2022-12-09T18:16:42.505Z,10.42
2022-12-09T18:19:17.559Z,10.49
2022-12-09T18:21:46.570Z,10.54
2022-12-09T18:24:15.004Z,10.57
2022-12-09T18:26:44.277Z,10.63
2022-12-09T18:29:14.045Z,10.69
2022-12-09T18:31:42.534Z,10.75
2022-12-09T18:34:10.809Z,10.78
2022-12-09T18:36:39.594Z,10.82
2022-12-09T18:39:08.423Z,10.93
2022-12-09T18:41:36.825Z,10.99
2022-12-09T18:44:07.974Z,11.03
2022-12-09T18:46:39.562Z,11.09
2022-12-09T18:49:20.429Z,11.17
2022-12-09T18:51:50.378Z,11.27
2022-12-09T18:54:21.920Z,11.39
2022-12-09T18:56:50.863Z,11.47
2022-12-09T18:59:20.386Z,11.59
2022-12-09T19:01:49.586Z,11.67
2022-12-09T19:04:21.084Z,11.74
2022-12-09T19:06:51.323Z,11.80
2022-12-09T19:09:22.887Z,11.83
2022-12-09T19:11:53.120Z,11.86
2022-12-09T19:14:23.621Z,11.88
2022-12-09T19:16:53.541Z,11.90
2022-12-09T19:19:24.449Z,11.92
2022-12-09T19:21:54.137Z,11.92
2022-12-09T19:24:26.526Z,11.93
2022-12-09T19:26:57.565Z,12.00
2022-12-09T19:29:27.549Z,12.04
2022-12-09T19:31:58.122Z,12.07
2022-12-09T19:34:28.903Z,12.08
2022-12-09T19:36:59.868Z,12.21
2022-12-09T19:39:32.152Z,12.39
2022-12-09T19:42:01.064Z,12.52
2022-12-09T19:45:00.823Z,12.59
2022-12-09T19:47:18.961Z,12.58
2022-12-09T19:49:47.219Z,12.61
2022-12-09T19:52:15.597Z,12.67
2022-12-09T19:54:43.925Z,12.71
2022-12-09T19:57:12.283Z,12.74
2022-12-09T19:59:40.588Z,12.75
2022-12-09T20:02:12.858Z,12.80
2022-12-09T20:04:49.933Z,12.85
2022-12-09T20:07:19.383Z,12.96
2022-12-09T20:09:47.747Z,13.11
2022-12-09T20:12:16.205Z,13.24
2022-12-09T20:14:45.184Z,13.40
2022-12-09T20:17:13.498Z,13.55
2022-12-09T20:19:41.836Z,13.64
2022-12-09T20:22:10.294Z,13.68
2022-12-09T20:24:38.764Z,13.67
2022-12-09T20:27:07.224Z,13.71
2022-12-09T20:29:38.010Z,13.75
2022-12-09T20:32:09.289Z,13.75
2022-12-09T20:34:37.673Z,13.69
2022-12-09T20:37:06.629Z,13.64
2022-12-09T20:39:35.104Z,13.58
2022-12-09T20:42:03.570Z,13.56
2022-12-09T20:44:33.343Z,13.53
2022-12-09T20:47:01.664Z,13.50
2022-12-09T20:49:31.262Z,13.54
2022-12-09T20:51:59.746Z,13.59
2022-12-09T20:54:28.185Z,13.57
2022-12-09T20:56:56.663Z,13.56
2022-12-09T20:59:25.151Z,13.56
2022-12-09T21:01:55.099Z,13.59
2022-12-09T21:04:24.171Z,13.61
2022-12-09T21:06:52.844Z,13.63
2022-12-09T21:09:23.784Z,13.73
2022-12-09T21:11:52.234Z,13.83
2022-12-09T21:14:21.631Z,13.91
2022-12-09T21:16:53.250Z,13.92
2022-12-09T21:19:25.833Z,13.95
2022-12-09T21:21:55.405Z,14.01
2022-12-09T21:24:25.664Z,14.07
2022-12-09T21:26:56.339Z,14.11
2022-12-09T21:29:31.557Z,14.13
2022-12-09T21:32:01.229Z,14.15
2022-12-09T21:34:29.641Z,14.12
2022-12-09T21:36:58.234Z,14.12
2022-12-09T21:39:27.277Z,14.12
2022-12-09T21:41:56.146Z,14.17
2022-12-09T21:44:26.424Z,14.20
2022-12-09T21:46:55.100Z,14.26
2022-12-09T21:49:23.704Z,14.23
2022-12-09T21:51:52.223Z,14.17
2022-12-09T21:54:20.539Z,14.12
2022-12-09T21:56:49.003Z,14.04
2022-12-09T21:59:17.423Z,13.99
2022-12-09T22:01:45.857Z,13.99
2022-12-09T22:04:17.387Z,14.01
2022-12-09T22:06:50.947Z,14.04
2022-12-09T22:09:21.984Z,14.00
2022-12-09T22:11:50.594Z,14.00
2022-12-09T22:14:19.043Z,13.96
2022-12-09T22:16:47.578Z,13.95
2022-12-09T22:19:21.834Z,13.94
2022-12-09T22:21:50.805Z,13.95
2022-12-09T22:24:20.162Z,13.93
2022-12-09T22:26:48.818Z,13.93
2022-12-09T22:29:18.639Z,13.95
2022-12-09T22:31:47.759Z,13.98
2022-12-09T22:34:19.173Z,14.00
2022-12-09T22:36:49.381Z,14.03
2022-12-09T22:39:20.504Z,14.06
2022-12-09T22:41:49.498Z,14.08
2022-12-09T22:44:20.807Z,14.05
2022-12-09T22:46:49.548Z,14.03
2022-12-09T22:49:18.777Z,14.07
2022-12-09T22:51:47.917Z,14.07
2022-12-09T22:54:16.553Z,14.05
2022-12-09T22:56:45.824Z,14.07
2022-12-09T22:59:15.022Z,14.08
2022-12-09T23:01:50.540Z,14.09
2022-12-09T23:04:24.523Z,14.11
2022-12-09T23:06:53.124Z,14.10
2022-12-09T23:09:26.258Z,14.09
2022-12-09T23:11:54.748Z,14.09
2022-12-09T23:14:23.244Z,14.12
2022-12-09T23:16:51.593Z,14.14
2022-12-09T23:19:20.219Z,14.15
2022-12-09T23:21:48.708Z,14.13
2022-12-09T23:24:24.330Z,14.14
2022-12-09T23:26:55.629Z,14.13
2022-12-09T23:29:24.067Z,14.11
2022-12-09T23:31:52.562Z,14.07
2022-12-09T23:34:21.123Z,14.06
2022-12-09T23:36:49.502Z,14.03
2022-12-09T23:39:19.854Z,14.01
2022-12-09T23:41:48.863Z,13.98
2022-12-09T23:44:19.424Z,13.97
2022-12-09T23:46:47.882Z,13.97
2022-12-09T23:49:16.716Z,13.97
2022-12-09T23:51:45.070Z,13.97
2022-12-09T23:54:15.504Z,13.97
2022-12-09T23:56:51.742Z,13.95
2022-12-09T23:59:22.464Z,13.92
